Manila Luzon Island, Philippines

6:29 PM PHT on October 21, 2014 (GMT +0800)
Dasmarinas | Change Station
CLOSE
Current Station
Personal Weather Station
Location: Makati, METRO MANILA
Elevation: 49 ft
Nearby Weather Stations

Elev 49 ft 14.55 °N, 121.03 °E | Updated 4 minutes ago

Overcast
Overcast
82.7 °F
Feels Like 92 °F
N
0.0
Wind Variable Wind from SE
Gusts 2.2 mph

Today
High -- | Low -- °F
--% Chance of Precip.
Yesterday
High -- | Low -- °F
Precip. -- in
5:48 AM 5:32 PM
Waning Crescent, 6% visible
Pressure 29.86 in
Visibility 6.2 miles
Clouds Scattered Clouds 2500 ft
Mostly Cloudy 10000 ft
Overcast 30000 ft
Heat Index 92 °F
Dew Point 78 °F
Humidity 86%
Rainfall 0.00 in
Snow Depth Not available.
UV 0 out of 12
Pollen Not available.
Air Quality Not available.
Flu Activity Not available.
METAR RPLL 211000Z 15003KT 110V230 9999 SCT025 BKN100 OVC300 30/26 Q1011 NOSIG RMK A2985

More Conditions Fewer Conditions

Pressure 29.86 in
Visibility 6.2 miles
Clouds Scattered Clouds 2500 ft
Mostly Cloudy 10000 ft
Overcast 30000 ft
Heat Index 92 °F
Dew Point 78 °F
Humidity 86%
Rainfall 0.00 in
Snow Depth Not available.
UV 0 out of 12
Pollen Not available.
Air Quality Not available.
Flu Activity Not available.
METAR RPLL 211000Z 15003KT 110V230 9999 SCT025 BKN100 OVC300 30/26 Q1011 NOSIG RMK A2985

More Conditions Fewer Conditions

10-Day Weather Forecast

Almanac

Astronomy

Oct. 21, 2014 Rise Set
Actual Time 5:48 AM PHT 5:32 PM PHT
Civil Twilight 5:26 AM PHT 5:54 PM PHT
Nautical Twilight 5:01 AM PHT 6:19 PM PHT
Astronomical Twilight 4:36 AM PHT 6:44 PM PHT
Moon 3:25 AM PHT 3:46 PM PHT
Length of Visible Light 12h 27m
Length of Day
11h 44m
Tomorrow will be 0m 45s shorter.
Waning Crescent, 6% of the Moon is Illuminated
Today
Waning Crescent
Oct 23
New
Oct 30
First Quarter
Nov 6
Full
Nov 14
Last Quarter

Yesterday's Extremes

Country Highs Country Lows

Community

WunderPhotos

Upload Photos

1,763,625 photos uploaded!

Nearby

Snow Depth

Not available.

Earthquake Activity

City Distance Mag. Time & Date
No recent earthquake activity has been reported nearby.
Minimum magnitude displayed is 2.5.

Coastal Water Temperatures

Place Temperature
No Stations Reporting

Nearby Weather Stations